Time;durP1;ratioP1;P1;durP2;ratioP2;P2;SDS_P1;SDS_P2;PMS_P1;PMS_P2;Temp;Humidity;BMP_temperature;BMP_pressure;BME280_temperature;BME280_humidity;BME280_pressure;Samples;Min_cycle;Max_cycle;Signal;HPM_P1;HPM_P2
2022/12/05 00:02:44;;;;;;;3.77;3.67;;;1.00;99.90;;;;;;6339360;28;20317;-68
2022/12/05 00:05:49;;;;;;;4.17;3.87;;;1.20;99.90;;;;;;6339972;28;20278;-68
2022/12/05 00:08:54;;;;;;;3.80;3.60;;;1.00;99.90;;;;;;6322593;28;20298;-68
2022/12/05 00:11:59;;;;;;;4.23;3.83;;;0.90;99.90;;;;;;6340210;28;20262;-68
2022/12/05 00:15:08;;;;;;;4.10;3.90;;;0.90;99.90;;;;;;6339424;28;20293;-68
2022/12/05 00:18:13;;;;;;;3.93;3.73;;;1.00;99.90;;;;;;6339843;28;20299;-68
2022/12/05 00:21:20;;;;;;;3.50;3.40;;;0.90;99.90;;;;;;6339705;28;20578;-68
2022/12/05 00:24:25;;;;;;;4.27;3.97;;;0.90;99.90;;;;;;6339050;28;20604;-67
2022/12/05 00:27:29;;;;;;;3.73;3.43;;;0.70;99.90;;;;;;6339336;28;20265;-68
2022/12/05 00:30:35;;;;;;;3.97;3.73;;;0.60;99.90;;;;;;6339187;28;20297;-68
2022/12/05 00:33:40;;;;;;;3.37;3.27;;;0.60;99.90;;;;;;6338928;28;20303;-68
2022/12/05 00:36:45;;;;;;;3.77;3.47;;;0.50;99.90;;;;;;6339551;28;20270;-68
2022/12/05 00:39:50;;;;;;;3.40;3.20;;;0.50;99.90;;;;;;6338410;28;20465;-68
2022/12/05 00:42:54;;;;;;;3.40;3.30;;;0.40;99.90;;;;;;6338938;28;20271;-69
2022/12/05 00:46:03;;;;;;;4.10;3.90;;;0.40;99.90;;;;;;6339128;28;20269;-69
2022/12/05 00:49:08;;;;;;;4.00;3.80;;;0.40;99.90;;;;;;6338917;28;20290;-69
2022/12/05 00:52:13;;;;;;;3.80;3.60;;;0.30;99.90;;;;;;6339225;28;20545;-69
2022/12/05 00:55:18;;;;;;;5.30;3.60;;;0.30;99.90;;;;;;6338858;28;20305;-69
2022/12/05 00:58:23;;;;;;;4.07;3.87;;;0.20;99.90;;;;;;6338090;28;20293;-69
2022/12/05 01:01:31;;;;;;;3.70;3.50;;;0.30;99.90;;;;;;6339034;28;20297;-69
2022/12/05 01:04:37;;;;;;;4.60;4.33;;;0.40;99.90;;;;;;6338526;28;20297;-69
2022/12/05 01:07:41;;;;;;;4.30;3.97;;;0.30;99.90;;;;;;6338301;28;20305;-69
2022/12/05 01:10:53;;;;;;;4.77;4.47;;;0.10;99.90;;;;;;6338061;28;20582;-69
2022/12/05 01:13:59;;;;;;;4.63;4.33;;;0.20;99.90;;;;;;6355800;28;20300;-69
2022/12/05 01:17:05;;;;;;;4.03;3.83;;;0.10;99.90;;;;;;6363746;28;20276;-69
2022/12/05 01:20:13;;;;;;;4.67;4.27;;;0.20;99.90;;;;;;6363175;28;20294;-69
2022/12/05 01:23:17;;;;;;;4.10;3.90;;;0.20;99.90;;;;;;6363283;28;20291;-69
2022/12/05 01:26:23;;;;;;;4.40;4.20;;;0.10;99.90;;;;;;6363632;28;20443;-67
2022/12/05 01:29:28;;;;;;;4.23;4.03;;;0.00;99.90;;;;;;6363040;28;20293;-68
2022/12/05 01:32:34;;;;;;;4.03;3.80;;;0.00;99.90;;;;;;6363301;28;20272;-68
2022/12/05 01:35:41;;;;;;;4.87;4.37;;;0.00;99.90;;;;;;6362641;28;20311;-68
2022/12/05 01:38:46;;;;;;;3.80;3.70;;;0.00;99.90;;;;;;6362292;28;20291;-68
2022/12/05 01:41:52;;;;;;;4.90;3.90;;;-0.10;99.90;;;;;;6362859;28;20265;-68
2022/12/05 01:45:06;;;;;;;4.17;3.93;;;-0.10;99.90;;;;;;6362336;28;20299;-68
2022/12/05 01:48:18;;;;;;;4.20;4.00;;;-0.30;99.90;;;;;;6362593;28;20611;-68
2022/12/05 01:51:23;;;;;;;4.13;3.83;;;-0.20;99.90;;;;;;6362681;28;20430;-68
2022/12/05 01:54:29;;;;;;;4.40;4.20;;;-0.20;99.90;;;;;;6361524;28;20478;-68
2022/12/05 01:57:35;;;;;;;4.77;4.37;;;-0.20;99.90;;;;;;6362656;28;20474;-68
2022/12/05 02:00:40;;;;;;;4.00;3.70;;;0.00;99.90;;;;;;6362546;28;20292;-68
2022/12/05 02:03:48;;;;;;;4.50;4.20;;;-0.10;99.90;;;;;;6361920;28;20295;-68
2022/12/05 02:06:53;;;;;;;4.67;4.37;;;-0.20;99.90;;;;;;6344732;28;20276;-69
2022/12/05 02:09:58;;;;;;;4.47;4.17;;;-0.20;99.90;;;;;;6346609;28;20296;-69
2022/12/05 02:13:15;;;;;;;4.80;4.40;;;-0.20;99.90;;;;;;6361439;28;20287;-69
2022/12/05 02:16:28;;;;;;;4.67;4.37;;;-0.20;99.90;;;;;;6344522;28;20292;-69
2022/12/05 02:19:59;;;;;;;4.87;4.57;;;-0.10;99.90;;;;;;6362130;28;20572;-69
2022/12/05 02:23:56;;;;;;;4.43;4.10;;;-0.10;99.90;;;;;;6361617;28;20287;-68
2022/12/05 02:27:30;;;;;;;4.27;4.07;;;-0.10;99.90;;;;;;6347859;28;20552;-68
2022/12/05 02:30:39;;;;;;;4.27;3.90;;;0.10;99.90;;;;;;6361547;28;20583;-68
2022/12/05 02:33:48;;;;;;;4.10;3.90;;;0.20;99.90;;;;;;6361516;28;20295;-68
2022/12/05 02:36:59;;;;;;;3.80;3.60;;;0.00;99.90;;;;;;6362131;28;20292;-68
2022/12/05 02:40:11;;;;;;;4.70;4.40;;;0.00;99.90;;;;;;6361328;28;20296;-68
2022/12/05 02:43:19;;;;;;;4.43;3.77;;;0.00;99.90;;;;;;6361079;28;20295;-68
2022/12/05 02:46:29;;;;;;;3.67;3.47;;;0.00;99.90;;;;;;6361901;28;20276;-68
2022/12/05 02:49:36;;;;;;;4.20;4.00;;;0.00;99.90;;;;;;6361388;28;20296;-68
2022/12/05 02:52:42;;;;;;;4.00;3.80;;;0.20;99.90;;;;;;6361933;28;20268;-68
2022/12/05 02:55:48;;;;;;;3.97;3.77;;;0.20;99.90;;;;;;6360575;28;20288;-68
2022/12/05 02:58:55;;;;;;;3.93;3.73;;;0.30;99.90;;;;;;6360812;28;20384;-68
2022/12/05 03:02:01;;;;;;;4.37;4.10;;;0.30;99.90;;;;;;6361461;28;20446;-68
2022/12/05 03:05:17;;;;;;;3.57;3.37;;;0.30;99.90;;;;;;6361071;28;20299;-68
2022/12/05 03:08:27;;;;;;;3.87;3.50;;;0.40;99.90;;;;;;6352267;28;20465;-68
2022/12/05 03:11:38;;;;;;;3.83;3.73;;;0.20;99.90;;;;;;6360934;28;20260;-68
2022/12/05 03:14:47;;;;;;;4.20;3.90;;;0.30;99.90;;;;;;6360869;28;20306;-68
2022/12/05 03:17:57;;;;;;;3.90;3.60;;;0.30;99.90;;;;;;6360704;28;20264;-68
2022/12/05 03:21:08;;;;;;;4.00;3.80;;;0.20;99.90;;;;;;6361081;28;20272;-68
2022/12/05 03:24:15;;;;;;;3.63;3.53;;;0.30;99.90;;;;;;6360570;28;20468;-68
2022/12/05 03:27:25;;;;;;;3.63;3.43;;;0.30;99.90;;;;;;6361259;28;20271;-68
2022/12/05 03:30:31;;;;;;;3.80;3.60;;;0.40;99.90;;;;;;6360404;28;20292;-69
2022/12/05 03:33:42;;;;;;;3.63;3.50;;;0.40;99.90;;;;;;6360089;28;20312;-68
2022/12/05 03:36:50;;;;;;;4.50;4.30;;;0.50;99.90;;;;;;6360792;28;20292;-68
2022/12/05 03:40:06;;;;;;;3.83;3.73;;;0.40;99.90;;;;;;6359842;28;20292;-67
2022/12/05 03:43:25;;;;;;;3.83;3.63;;;0.40;99.90;;;;;;6359977;28;20300;-68
2022/12/05 03:46:32;;;;;;;3.23;3.23;;;0.30;99.90;;;;;;6361069;28;20274;-67
2022/12/05 03:49:43;;;;;;;3.83;3.73;;;0.50;99.90;;;;;;6348225;28;20298;-67
2022/12/05 03:52:53;;;;;;;3.80;3.57;;;0.50;99.90;;;;;;6316668;28;20277;-68
2022/12/05 03:56:23;;;;;;;3.77;3.67;;;0.60;99.90;;;;;;6335343;28;20290;-67
2022/12/05 03:59:33;;;;;;;3.53;3.37;;;0.60;99.90;;;;;;6334700;28;20294;-67
2022/12/05 04:02:44;;;;;;;3.50;3.40;;;0.50;99.90;;;;;;6356090;28;20272;-68
2022/12/05 04:05:53;;;;;;;3.70;3.50;;;0.70;99.90;;;;;;6348095;28;20286;-67
2022/12/05 04:09:01;;;;;;;4.20;4.00;;;0.70;99.90;;;;;;6359604;28;20298;-68
2022/12/05 04:12:08;;;;;;;3.87;3.67;;;0.60;99.90;;;;;;6360539;28;20266;-67
2022/12/05 04:15:21;;;;;;;3.53;3.43;;;0.60;99.90;;;;;;6360424;28;20715;-68
2022/12/05 04:18:26;;;;;;;4.00;3.80;;;0.60;99.90;;;;;;6364737;28;20277;-68
2022/12/05 04:21:38;;;;;;;3.83;3.50;;;0.80;99.90;;;;;;6365215;28;20451;-68
2022/12/05 04:28:24;;;;;;;3.60;3.50;;;0.60;99.90;;;;;;6365159;28;20265;-68
2022/12/05 04:31:33;;;;;;;3.40;3.20;;;0.70;99.90;;;;;;6364284;28;20264;-70
2022/12/05 04:34:39;;;;;;;3.63;3.33;;;0.70;99.90;;;;;;6364364;28;20297;-69
2022/12/05 04:37:48;;;;;;;3.57;3.47;;;0.70;99.90;;;;;;6364160;28;20281;-68
2022/12/05 04:40:58;;;;;;;3.70;3.50;;;0.70;99.90;;;;;;6364497;28;20289;-68
2022/12/05 04:44:07;;;;;;;3.60;3.40;;;0.80;99.90;;;;;;6364365;28;20289;-68
2022/12/05 04:47:14;;;;;;;3.43;3.20;;;0.80;99.90;;;;;;6364348;28;20315;-68
2022/12/05 04:50:19;;;;;;;3.63;3.43;;;0.70;99.90;;;;;;6364204;28;20292;-68
2022/12/05 04:53:29;;;;;;;3.73;3.60;;;0.80;99.90;;;;;;6363588;28;20267;-68
2022/12/05 04:56:36;;;;;;;3.40;3.20;;;0.90;99.90;;;;;;6364129;28;20294;-68
2022/12/05 04:59:41;;;;;;;3.37;3.23;;;0.90;99.90;;;;;;6363336;28;20290;-68
2022/12/05 05:02:51;;;;;;;3.00;2.90;;;0.90;99.90;;;;;;6364443;28;20267;-67
2022/12/05 05:05:57;;;;;;;3.57;3.37;;;1.00;99.90;;;;;;6363569;28;20298;-67
2022/12/05 05:09:04;;;;;;;3.60;3.40;;;1.00;99.90;;;;;;6363202;28;20589;-68
2022/12/05 05:12:12;;;;;;;3.47;3.27;;;1.00;99.90;;;;;;6363929;28;20452;-68
2022/12/05 05:15:22;;;;;;;3.57;3.37;;;1.00;99.90;;;;;;6363695;28;20295;-68
2022/12/05 05:18:27;;;;;;;3.40;3.30;;;1.20;99.90;;;;;;6362958;28;20284;-68
2022/12/05 05:21:34;;;;;;;3.60;3.40;;;1.10;99.90;;;;;;6363811;28;20262;-67
2022/12/05 05:24:40;;;;;;;3.23;3.13;;;1.20;99.90;;;;;;6363143;28;20477;-67
2022/12/05 05:27:50;;;;;;;3.60;3.30;;;1.10;99.90;;;;;;6363671;28;20274;-68
2022/12/05 05:30:54;;;;;;;4.60;3.40;;;1.10;99.90;;;;;;6363065;28;20290;-68
2022/12/05 05:33:59;;;;;;;3.67;3.47;;;1.30;99.90;;;;;;6363007;28;20294;-68
2022/12/05 05:37:13;;;;;;;3.13;2.97;;;1.20;99.90;;;;;;6363106;28;20290;-68
2022/12/05 05:40:19;;;;;;;3.80;3.60;;;1.10;99.90;;;;;;6362611;28;20293;-68
2022/12/05 05:43:24;;;;;;;3.23;3.13;;;1.30;99.90;;;;;;6363120;28;20303;-68
2022/12/05 05:46:31;;;;;;;3.33;3.23;;;1.40;99.90;;;;;;6363096;28;20269;-68
2022/12/05 05:49:36;;;;;;;3.10;3.00;;;1.40;99.90;;;;;;6362053;28;20294;-68
2022/12/05 05:52:43;;;;;;;4.00;3.70;;;1.40;99.90;;;;;;6362757;28;20447;-68
2022/12/05 05:55:49;;;;;;;4.07;3.67;;;1.50;99.90;;;;;;6362570;28;20303;-68
2022/12/05 05:58:59;;;;;;;3.70;3.50;;;1.60;99.90;;;;;;6362072;28;20297;-68
2022/12/05 06:02:03;;;;;;;3.37;3.13;;;1.40;99.90;;;;;;6345076;28;20268;-68
2022/12/05 06:05:09;;;;;;;3.20;3.00;;;1.30;99.90;;;;;;6362404;28;20591;-68
2022/12/05 06:08:14;;;;;;;3.40;3.20;;;1.30;99.90;;;;;;6362410;28;20303;-68
2022/12/05 06:11:23;;;;;;;3.17;3.07;;;1.30;99.90;;;;;;6362093;28;20298;-67
2022/12/05 06:14:30;;;;;;;3.40;3.20;;;1.30;99.90;;;;;;6361790;28;20299;-67
2022/12/05 06:17:35;;;;;;;3.60;3.30;;;1.30;99.90;;;;;;6344598;28;20474;-68
2022/12/05 06:20:39;;;;;;;3.80;3.40;;;1.30;99.90;;;;;;6361847;28;20296;-68
2022/12/05 06:23:44;;;;;;;3.90;3.60;;;1.30;99.90;;;;;;6361757;28;20298;-69
2022/12/05 06:26:51;;;;;;;4.67;3.63;;;1.40;99.90;;;;;;6362105;28;20449;-68
2022/12/05 06:29:55;;;;;;;3.50;3.30;;;1.40;99.90;;;;;;6361554;28;20303;-68
2022/12/05 06:33:00;;;;;;;3.60;3.30;;;1.40;99.90;;;;;;6361980;28;20261;-68
2022/12/05 06:36:08;;;;;;;3.70;3.40;;;1.40;99.90;;;;;;6361534;28;20293;-68
2022/12/05 06:39:13;;;;;;;3.53;3.33;;;1.30;99.90;;;;;;6360978;28;20602;-68
2022/12/05 06:42:21;;;;;;;3.80;3.60;;;1.30;99.90;;;;;;6361506;28;20275;-68
2022/12/05 06:45:25;;;;;;;4.00;3.80;;;1.30;99.90;;;;;;6361109;28;20297;-68
2022/12/05 06:48:31;;;;;;;3.83;3.50;;;1.20;99.90;;;;;;6360971;28;20468;-68
2022/12/05 06:51:36;;;;;;;4.37;3.77;;;1.20;99.90;;;;;;6361305;28;20289;-68
2022/12/05 06:54:41;;;;;;;3.97;3.77;;;1.20;99.90;;;;;;6361320;28;20296;-68
2022/12/05 06:57:47;;;;;;;5.00;4.50;;;1.10;99.90;;;;;;6361361;28;20287;-68
2022/12/05 07:04:19;;;;;;;3.90;3.70;;;1.10;99.90;;;;;;6361180;28;20289;-68
2022/12/05 07:07:23;;;;;;;4.33;3.93;;;1.20;99.90;;;;;;6360960;28;20587;-68
2022/12/05 07:10:28;;;;;;;4.77;4.07;;;1.30;99.90;;;;;;6360694;28;20292;-68
2022/12/05 07:13:35;;;;;;;4.37;4.07;;;1.30;99.90;;;;;;6360725;28;20438;-68
2022/12/05 07:16:40;;;;;;;4.43;4.10;;;1.50;99.90;;;;;;6361430;28;20261;-68
2022/12/05 07:19:44;;;;;;;5.00;3.80;;;1.40;99.90;;;;;;6360853;28;20588;-67
2022/12/05 07:22:49;;;;;;;4.60;4.20;;;1.60;99.90;;;;;;6360758;28;20269;-68
2022/12/05 07:25:56;;;;;;;4.60;4.27;;;1.60;99.90;;;;;;6360608;28;20296;-68
2022/12/05 07:29:02;;;;;;;4.50;4.20;;;1.50;99.90;;;;;;6360342;28;20292;-67
2022/12/05 07:32:08;;;;;;;4.40;4.07;;;1.40;99.90;;;;;;6361043;28;20454;-67
2022/12/05 07:35:13;;;;;;;3.90;3.60;;;1.60;99.90;;;;;;6360613;28;20293;-67
2022/12/05 07:38:17;;;;;;;4.00;3.70;;;1.60;99.90;;;;;;6360797;28;20292;-67
2022/12/05 07:41:24;;;;;;;6.00;3.90;;;1.60;99.90;;;;;;6360433;28;20289;-67
2022/12/05 07:44:30;;;;;;;4.67;4.17;;;1.70;99.90;;;;;;6360109;28;20620;-67
2022/12/05 07:47:34;;;;;;;3.77;3.60;;;1.70;99.90;;;;;;6360595;28;20265;-67
2022/12/05 07:50:39;;;;;;;4.47;4.17;;;1.60;99.90;;;;;;6361542;28;20297;-67
2022/12/05 07:53:44;;;;;;;4.20;3.90;;;1.60;99.90;;;;;;6365337;28;20301;-68
2022/12/05 07:56:49;;;;;;;4.40;4.00;;;1.60;99.90;;;;;;6365929;28;20271;-67
2022/12/05 07:59:55;;;;;;;3.83;3.67;;;1.70;99.90;;;;;;6364994;28;20601;-68
2022/12/05 08:03:03;;;;;;;4.60;4.20;;;1.70;99.90;;;;;;6365406;28;20262;-67
2022/12/05 08:06:10;;;;;;;3.97;3.63;;;1.60;99.90;;;;;;6365016;28;20287;-68
2022/12/05 08:09:15;;;;;;;4.30;3.97;;;1.70;99.90;;;;;;6364963;28;20305;-68
2022/12/05 08:12:19;;;;;;;4.60;4.27;;;1.80;99.90;;;;;;6365453;28;20261;-67
2022/12/05 08:15:25;;;;;;;4.43;4.13;;;1.70;99.90;;;;;;6364837;28;20295;-68
2022/12/05 08:18:31;;;;;;;6.00;3.83;;;1.80;99.90;;;;;;6364806;28;20316;-67
2022/12/05 08:21:36;;;;;;;4.07;3.77;;;2.00;99.90;;;;;;6364922;28;20265;-67
2022/12/05 08:24:40;;;;;;;4.23;3.83;;;2.00;99.90;;;;;;6364626;28;20292;-67
2022/12/05 08:27:45;;;;;;;4.40;4.10;;;2.00;99.90;;;;;;6364649;28;20424;-67
2022/12/05 08:30:51;;;;;;;4.30;3.90;;;1.90;99.90;;;;;;6364387;28;20292;-67
2022/12/05 08:33:57;;;;;;;5.23;4.73;;;1.80;99.90;;;;;;6363901;28;20282;-67
2022/12/05 08:37:03;;;;;;;6.13;4.47;;;1.80;99.90;;;;;;6346949;28;20289;-67
2022/12/05 08:40:09;;;;;;;4.10;3.80;;;1.80;99.90;;;;;;6364276;28;20325;-67
2022/12/05 08:43:14;;;;;;;3.50;3.30;;;1.90;99.90;;;;;;6364742;28;20281;-67
2022/12/05 08:46:20;;;;;;;4.93;3.87;;;1.90;99.90;;;;;;6364111;28;20298;-68
2022/12/05 08:49:25;;;;;;;4.70;3.90;;;1.80;99.90;;;;;;6345926;28;20297;-67
2022/12/05 08:52:30;;;;;;;4.50;4.10;;;1.80;99.90;;;;;;6364515;28;20271;-67
2022/12/05 08:55:35;;;;;;;3.90;3.70;;;1.70;99.90;;;;;;6363355;28;20299;-67
2022/12/05 08:58:40;;;;;;;7.00;4.30;;;1.70;99.90;;;;;;6363802;28;20289;-67
2022/12/05 09:01:46;;;;;;;4.97;4.60;;;1.50;99.90;;;;;;6363613;28;20267;-67
2022/12/05 09:04:51;;;;;;;4.30;4.00;;;1.40;99.90;;;;;;6363748;28;20289;-67
2022/12/05 09:07:58;;;;;;;4.50;4.17;;;1.40;99.90;;;;;;6364045;28;20289;-67
2022/12/05 09:11:06;;;;;;;6.03;4.73;;;1.40;99.90;;;;;;6363259;28;20576;-68
2022/12/05 09:14:15;;;;;;;4.57;4.17;;;1.40;99.90;;;;;;6345905;28;20306;-67
2022/12/05 09:17:21;;;;;;;4.33;3.97;;;1.60;99.90;;;;;;6363727;28;20270;-68
2022/12/05 09:20:26;;;;;;;4.33;4.10;;;1.50;99.90;;;;;;6362996;28;20370;-67
2022/12/05 09:23:32;;;;;;;4.40;4.00;;;1.50;99.90;;;;;;6363385;28;20290;-68
2022/12/05 09:26:37;;;;;;;4.10;3.90;;;1.60;99.90;;;;;;6363750;28;20269;-67
2022/12/05 09:29:42;;;;;;;5.00;4.63;;;1.60;99.90;;;;;;6363260;28;20293;-67
2022/12/05 09:32:48;;;;;;;4.90;4.57;;;1.70;99.90;;;;;;6363160;28;20264;-67
2022/12/05 09:35:53;;;;;;;4.87;4.47;;;1.70;99.90;;;;;;6363269;28;20293;-67
2022/12/05 09:39:01;;;;;;;4.40;4.07;;;1.60;99.90;;;;;;6362940;28;20289;-68
2022/12/05 09:42:26;;;;;;;4.70;4.30;;;1.60;99.90;;;;;;6362951;28;20268;-67
2022/12/05 09:45:37;;;;;;;4.17;3.90;;;1.60;99.90;;;;;;6362850;28;20307;-67
2022/12/05 09:48:43;;;;;;;4.70;4.30;;;1.60;99.90;;;;;;6362439;28;20271;-68
2022/12/05 09:51:49;;;;;;;6.13;4.13;;;1.80;99.90;;;;;;6362601;28;20265;-68
2022/12/05 09:55:05;;;;;;;4.70;4.40;;;1.80;99.90;;;;;;6362423;28;20297;-67
2022/12/05 09:58:42;;;;;;;4.53;4.23;;;1.70;99.90;;;;;;6362596;28;20270;-67
2022/12/05 10:01:54;;;;;;;6.67;4.70;;;1.70;99.90;;;;;;6361423;28;20269;-67
2022/12/05 10:05:04;;;;;;;3.90;3.70;;;1.80;99.90;;;;;;6362433;28;20545;-67
2022/12/05 10:08:17;;;;;;;4.63;4.13;;;1.80;99.90;;;;;;6362759;28;20293;-68
2022/12/05 10:11:27;;;;;;;4.07;3.87;;;1.90;99.90;;;;;;6362021;28;20295;-68
2022/12/05 10:14:39;;;;;;;4.77;4.00;;;1.80;99.90;;;;;;6361537;28;20295;-67
2022/12/05 10:17:49;;;;;;;3.37;3.17;;;1.80;99.90;;;;;;6362461;28;20442;-67
2022/12/05 10:21:00;;;;;;;3.80;3.53;;;1.90;99.90;;;;;;6344118;28;20299;-67
2022/12/05 10:24:13;;;;;;;5.30;3.80;;;1.90;99.90;;;;;;6361830;28;20288;-67
2022/12/05 10:27:20;;;;;;;4.00;3.80;;;2.10;99.90;;;;;;6361882;28;20461;-69
2022/12/05 10:30:29;;;;;;;3.93;3.63;;;2.20;99.90;;;;;;6361763;28;20298;-68
2022/12/05 10:33:39;;;;;;;3.73;3.53;;;2.40;99.90;;;;;;6361687;28;20268;-68
2022/12/05 10:36:55;;;;;;;5.07;3.80;;;2.40;99.90;;;;;;6361810;28;20265;-67
2022/12/05 10:39:59;;;;;;;3.70;3.50;;;2.30;99.90;;;;;;6361433;28;20300;-67
2022/12/05 10:43:07;;;;;;;4.13;3.83;;;2.10;99.90;;;;;;6343390;28;20267;-67
2022/12/05 10:46:13;;;;;;;3.60;3.37;;;2.00;99.90;;;;;;6361449;28;20314;-67
2022/12/05 10:49:21;;;;;;;4.30;3.90;;;2.10;99.90;;;;;;6360741;28;20577;-68
2022/12/05 10:52:27;;;;;;;6.23;4.23;;;2.10;99.90;;;;;;6361821;28;20263;-67
2022/12/05 10:55:36;;;;;;;7.07;4.00;;;2.20;99.90;;;;;;6361062;28;20296;-68
2022/12/05 10:58:55;;;;;;;4.50;4.20;;;2.30;99.90;;;;;;6360841;28;20265;-67
2022/12/05 11:02:01;;;;;;;4.50;4.13;;;2.30;99.90;;;;;;6361599;28;20265;-67
2022/12/05 11:05:08;;;;;;;5.37;4.87;;;2.30;99.90;;;;;;6360617;28;20288;-67
2022/12/05 11:08:23;;;;;;;5.23;4.83;;;2.40;99.90;;;;;;6360938;28;20303;-68
2022/12/05 11:12:03;;;;;;;5.20;4.70;;;2.30;99.90;;;;;;6361027;28;20463;-69
2022/12/05 11:15:24;;;;;;;5.13;4.73;;;2.30;99.90;;;;;;6360993;28;20294;-68
2022/12/05 11:18:32;;;;;;;4.90;4.50;;;2.30;99.90;;;;;;6360423;28;20257;-68
2022/12/05 11:21:42;;;;;;;7.53;3.80;;;2.20;99.90;;;;;;6361048;28;20287;-67
2022/12/05 11:24:48;;;;;;;5.17;4.67;;;2.20;99.90;;;;;;6362394;28;20313;-68
2022/12/05 11:27:54;;;;;;;4.70;4.30;;;2.30;99.90;;;;;;6366089;28;20589;-67
2022/12/05 11:31:16;;;;;;;4.93;4.13;;;2.40;99.90;;;;;;6365776;28;20295;-67
2022/12/05 11:34:24;;;;;;;4.63;4.33;;;2.40;99.90;;;;;;6365885;28;20300;-67
2022/12/05 11:37:35;;;;;;;4.70;4.33;;;2.40;99.90;;;;;;6365850;28;20584;-68
2022/12/05 11:40:50;;;;;;;6.27;4.90;;;2.20;99.90;;;;;;6347593;28;20316;-68
2022/12/05 11:44:23;;;;;;;5.03;4.60;;;2.30;99.90;;;;;;6365280;28;20288;-68
2022/12/05 11:47:45;;;;;;;5.77;4.33;;;2.30;99.90;;;;;;6365531;28;20269;-68
2022/12/05 11:51:03;;;;;;;5.90;4.87;;;2.30;99.90;;;;;;6365439;28;20296;-67
2022/12/05 11:54:48;;;;;;;5.60;5.00;;;2.30;99.90;;;;;;6365069;28;20284;-68
2022/12/05 11:58:36;;;;;;;5.00;4.53;;;2.20;99.90;;;;;;6347693;28;20268;-68
2022/12/05 12:01:49;;;;;;;4.70;4.30;;;2.10;99.90;;;;;;6364736;28;20433;-68
2022/12/05 12:05:01;;;;;;;4.77;4.37;;;2.10;99.90;;;;;;6365376;28;20290;-67
2022/12/05 12:08:15;;;;;;;5.33;3.87;;;2.10;99.90;;;;;;6365145;28;20291;-68
2022/12/05 12:11:27;;;;;;;5.13;4.27;;;2.20;99.90;;;;;;6364842;28;20301;-67
2022/12/05 12:14:46;;;;;;;4.90;4.53;;;2.10;99.90;;;;;;6364455;28;20291;-68
2022/12/05 12:17:57;;;;;;;4.40;4.17;;;2.40;99.90;;;;;;6365535;28;20531;-67
2022/12/05 12:21:17;;;;;;;6.47;4.00;;;2.30;99.90;;;;;;6364421;28;20470;-68
2022/12/05 12:24:31;;;;;;;3.90;3.60;;;2.30;99.90;;;;;;6364261;28;20293;-68
2022/12/05 12:27:46;;;;;;;4.37;4.07;;;2.30;99.90;;;;;;6365168;28;20264;-67
2022/12/05 12:31:07;;;;;;;4.33;4.03;;;2.40;99.90;;;;;;6364482;28;20297;-67
2022/12/05 12:34:34;;;;;;;3.83;3.53;;;2.30;99.90;;;;;;6364366;28;20296;-67
2022/12/05 12:37:45;;;;;;;3.80;3.60;;;2.30;99.90;;;;;;6364082;28;20273;-67
2022/12/05 12:40:54;;;;;;;4.40;3.77;;;2.30;99.90;;;;;;6363582;28;20297;-67
2022/12/05 12:44:07;;;;;;;4.30;3.70;;;2.20;99.90;;;;;;6364296;28;20581;-67
2022/12/05 12:47:18;;;;;;;4.23;3.93;;;2.30;99.90;;;;;;6364219;28;20264;-67
2022/12/05 12:50:25;;;;;;;4.03;3.87;;;2.30;99.90;;;;;;6363733;28;20304;-68
2022/12/05 12:53:56;;;;;;;4.50;4.10;;;2.30;99.90;;;;;;6363354;28;20267;-67
2022/12/05 12:57:10;;;;;;;5.60;4.20;;;2.40;99.90;;;;;;6364463;28;20265;-68
2022/12/05 13:00:27;;;;;;;4.33;3.97;;;2.40;99.90;;;;;;6363783;28;20292;-68
2022/12/05 13:03:39;;;;;;;4.40;4.20;;;2.30;99.90;;;;;;6363351;28;20273;-67
2022/12/05 13:06:48;;;;;;;4.33;3.93;;;2.30;99.90;;;;;;6364051;28;20285;-68
2022/12/05 13:09:57;;;;;;;4.30;3.90;;;2.10;99.90;;;;;;6363257;28;20304;-67
2022/12/05 13:13:04;;;;;;;5.17;4.43;;;2.20;99.90;;;;;;6363435;28;20314;-67
2022/12/05 13:16:17;;;;;;;10.87;4.23;;;2.20;99.90;;;;;;6363400;28;20431;-68
2022/12/05 13:19:29;;;;;;;7.90;3.63;;;2.20;99.90;;;;;;6363298;28;20299;-67
2022/12/05 13:22:34;;;;;;;3.97;3.70;;;2.20;99.90;;;;;;6363696;28;20288;-68
2022/12/05 13:25:40;;;;;;;4.07;3.87;;;2.20;99.90;;;;;;6363100;28;20461;-68
2022/12/05 13:28:51;;;;;;;3.80;3.47;;;2.20;99.90;;;;;;6345127;28;20295;-67
2022/12/05 13:31:56;;;;;;;4.80;3.70;;;2.20;99.90;;;;;;6363700;28;20267;-67
2022/12/05 13:35:09;;;;;;;7.73;4.00;;;2.20;99.90;;;;;;6362817;28;20291;-67
2022/12/05 13:45:16;;;;;;;4.30;3.90;;;2.20;99.90;;;;;;6362799;28;20288;-68
2022/12/05 13:48:24;;;;;;;4.07;3.63;;;2.10;99.90;;;;;;6361775;28;20272;-67
2022/12/05 13:51:34;;;;;;;3.93;3.73;;;2.20;99.90;;;;;;6343727;28;20268;-68
2022/12/05 13:54:44;;;;;;;4.60;3.90;;;2.10;99.90;;;;;;6362359;28;20315;-68
2022/12/05 13:57:53;;;;;;;4.30;4.00;;;2.20;99.90;;;;;;6362544;28;20265;-67
2022/12/05 14:01:44;;;;;;;4.47;4.07;;;2.20;99.90;;;;;;6362060;28;20288;-67
2022/12/05 14:04:59;;;;;;;5.00;4.17;;;2.20;99.90;;;;;;6344201;28;20296;-68
2022/12/05 14:08:57;;;;;;;5.37;4.33;;;2.10;99.90;;;;;;6362115;28;20293;-68
2022/12/05 14:12:30;;;;;;;4.57;4.20;;;2.10;99.90;;;;;;6361862;28;20283;-67
2022/12/05 14:15:41;;;;;;;4.13;3.70;;;2.20;99.90;;;;;;6361844;28;20312;-68
2022/12/05 14:18:49;;;;;;;3.37;3.23;;;2.10;99.90;;;;;;6361651;28;20580;-68
2022/12/05 14:22:01;;;;;;;5.07;3.60;;;2.10;99.90;;;;;;6362023;28;20288;-67
2022/12/05 14:25:19;;;;;;;3.87;3.50;;;2.00;99.90;;;;;;6361386;28;20291;-67
2022/12/05 14:28:37;;;;;;;3.53;3.33;;;;;;;;;;6360341;28;20548;-74
2022/12/05 14:31:51;;;;;;;3.20;3.00;;;;;;;;;;6361742;28;20592;-74
2022/12/05 14:34:58;;;;;;;4.17;3.50;;;;;;;;;;6361162;28;20291;-74
2022/12/05 14:38:05;;;;;;;3.53;3.30;;;;;;;;;;6361603;28;20284;-74
2022/12/05 14:41:22;;;;;;;3.60;3.40;;;;;;;;;;6360971;28;20294;-74
2022/12/05 14:44:30;;;;;;;3.37;3.20;;;;;;;;;;6360321;28;20298;-74
2022/12/05 14:47:36;;;;;;;3.80;3.40;;;;;;;;;;6361471;28;20551;-74
2022/12/05 14:50:44;;;;;;;3.60;3.20;;;;;;;;;;6361221;28;20293;-74
2022/12/05 14:53:49;;;;;;;4.00;3.60;;;;;;;;;;6360907;28;20289;-74
2022/12/05 14:57:07;;;;;;;4.87;4.10;;;;;;;;;;6360879;28;20265;-74
2022/12/05 15:00:20;;;;;;;4.67;4.07;;;;;;;;;;6360211;28;20589;-75
2022/12/05 15:03:30;;;;;;;3.90;3.70;;;;;;;;;;6360168;28;20609;-75
2022/12/05 15:06:42;;;;;;;3.77;3.47;;;;;;;;;;6360909;28;20267;-75
2022/12/05 15:09:56;;;;;;;3.60;3.40;;;;;;;;;;6360019;28;20585;-74
2022/12/05 15:13:08;;;;;;;3.80;3.60;;;;;;;;;;6361237;28;20271;-74
2022/12/05 15:16:16;;;;;;;3.47;3.37;;;;;;;;;;6360621;28;20461;-75
2022/12/05 15:19:28;;;;;;;4.40;4.00;;;;;;;;;;6360648;28;20291;-75
2022/12/05 15:22:35;;;;;;;4.50;3.67;;;;;;;;;;6360928;28;20285;-74
2022/12/05 15:25:40;;;;;;;3.43;3.10;;;;;;;;;;6360406;28;20297;-74
2022/12/05 15:29:04;;;;;;;3.57;3.23;;;;;;;;;;6342324;28;20317;-74
2022/12/05 15:32:19;;;;;;;3.00;2.90;;;;;;;;;;6360816;28;20278;-74
2022/12/05 15:35:26;;;;;;;3.60;3.30;;;;;;;;;;6360301;28;20291;-74
2022/12/05 15:38:33;;;;;;;3.47;3.27;;;;;;;;;;6360098;28;20274;-74
2022/12/05 15:41:38;;;;;;;3.33;3.13;;;;;;;;;;6360951;28;20265;-74
2022/12/05 15:44:44;;;;;;;5.03;3.03;;;;;;;;;;6360406;28;20304;-74
2022/12/05 15:47:51;;;;;;;7.43;3.20;;;;;;;;;;6360793;28;20275;-74
2022/12/05 15:50:56;;;;;;;3.50;3.30;;;;;;;;;;6352884;28;20456;-75
2022/12/05 15:54:05;;;;;;;3.20;3.00;;;;;;;;;;6334848;28;20294;-74
2022/12/05 15:57:15;;;;;;;3.40;3.30;;;;;;;;;;6335303;28;20272;-75
2022/12/05 16:00:24;;;;;;;3.93;3.40;;;;;;;;;;6334612;28;20353;-74
2022/12/05 16:03:38;;;;;;;3.50;3.20;;;;;;;;;;6334171;28;20297;-75
2022/12/05 16:06:44;;;;;;;4.13;3.10;;;;;;;;;;6334936;28;20270;-75
2022/12/05 16:09:50;;;;;;;3.70;3.40;;;;;;;;;;6334670;28;20650;-75
2022/12/05 16:12:55;;;;;;;3.10;2.90;;;;;;;;;;6326539;28;20354;-75
2022/12/05 16:16:02;;;;;;;3.57;3.37;;;;;;;;;;6339373;28;20295;-75
2022/12/05 16:19:14;;;;;;;4.17;3.23;;;;;;;;;;6321062;28;20493;-75
2022/12/05 16:22:22;;;;;;;2.67;2.60;;;;;;;;;;6339715;28;20267;-75
2022/12/05 16:25:29;;;;;;;3.30;3.10;;;;;;;;;;6338808;28;20298;-75
2022/12/05 16:28:34;;;;;;;2.77;2.67;;;;;;;;;;6339240;28;20281;-74
2022/12/05 16:31:41;;;;;;;3.37;3.27;;;;;;;;;;6339382;28;20276;-74
2022/12/05 16:34:46;;;;;;;3.40;3.20;;;;;;;;;;6338540;28;20314;-76
2022/12/05 16:37:51;;;;;;;3.57;3.27;;;;;;;;;;6339307;28;20270;-73
2022/12/05 16:40:58;;;;;;;3.43;3.23;;;;;;;;;;6337737;28;20292;-75
2022/12/05 16:44:04;;;;;;;4.67;3.70;;;;;;;;;;6338631;28;20567;-74
2022/12/05 16:47:24;;;;;;;3.50;3.40;;;;;;;;;;6339528;28;20271;-73
2022/12/05 16:50:31;;;;;;;3.67;3.47;;;;;;;;;;6338554;28;20574;-73
2022/12/05 16:53:36;;;;;;;3.33;3.23;;;;;;;;;;6338466;28;20273;-73
2022/12/05 16:56:42;;;;;;;3.77;3.50;;;;;;;;;;6338988;28;20268;-73
2022/12/05 16:59:48;;;;;;;3.57;3.37;;;;;;;;;;6338200;28;20303;-73
2022/12/05 17:02:54;;;;;;;3.93;3.73;;;;;;;;;;6320592;28;20496;-75
2022/12/05 17:06:20;;;;;;;3.83;3.53;;;;;;;;;;6338498;28;20287;-75
2022/12/05 17:09:25;;;;;;;4.67;3.83;;;;;;;;;;6337631;28;20298;-74
2022/12/05 17:12:29;;;;;;;4.00;3.53;;;;;;;;;;6353210;28;20260;-75
2022/12/05 17:15:35;;;;;;;4.10;3.70;;;;;;;;;;6362671;28;20286;-75